Latest Weather Observations for Kalumburu

IDD60801

Issued at 7:31 am CST Tuesday 21 February 2017 (issued every 30 minutes, with the page automatically refreshed every 10 minutes)

About weather observations | Map of weather stations | Latest weather observations for NT | Other Formats
Station Details ID: 001019 Name: KALUMBURU Lat: -14.30 Lon: 126.65 Height: 23.0 m
Data from the previous 72 hours. | See also: Recent months at Kalumburu
Date/Time
CST
Temp
°C
App
Temp
°C
Dew
Point
°C
Rel
Hum
%
Delta-T
°C
Wind Press
QNH
hPa
Press
MSL
hPa
Rain since
9am
mm
Dir  Spd
km/h
Gust
km/h
Spd
kts
Gust
kts
21/07:00am 23.4 28.0 21.7 90 1.1 CALM 0 0 0 0 1010.7 1010.5 13.2
21/06:30am 23.4 28.0 21.7 90 1.1 CALM 0 0 0 0 1010.3 1010.1 13.2
21/06:00am 23.4 27.5 21.5 89 1.3 S 2 6 1 3 1010.2 1010.0 13.2
21/05:30am 23.8 28.6 22.1 90 1.1 CALM 0 6 0 3 1009.9 1009.7 13.2
21/05:00am 24.0 27.7 22.3 90 1.1 S 6 9 3 5 1009.6 1009.4 13.2
21/04:30am 23.8 28.5 21.9 89 1.3 CALM 0 0 0 0 1009.3 1009.1 13.2
21/04:00am 24.3 29.2 22.4 89 1.3 CALM 0 0 0 0 1009.3 1009.1 13.2
21/03:30am 24.4 29.5 22.7 90 1.1 CALM 0 0 0 0 1009.2 1009.0 13.2
21/03:00am 24.6 29.7 22.7 89 1.3 CALM 0 0 0 0 1009.4 1009.2 13.2
21/02:30am 24.8 29.9 22.7 88 1.4 CALM 0 0 0 0 1009.7 1009.5 13.2
21/02:00am 24.9 30.1 22.8 88 1.4 CALM 0 0 0 0 1009.9 1009.7 13.2
21/01:30am 25.1 30.5 23.2 89 1.3 CALM 0 0 0 0 1010.0 1009.8 13.2
21/01:00am 25.3 30.7 23.2 88 1.4 CALM 0 0 0 0 1010.4 1010.2 13.2
21/12:30am 25.6 31.2 23.5 88 1.4 CALM 0 0 0 0 1010.6 1010.4 13.2
21/12:00am 25.8 31.5 23.7 88 1.4 CALM 0 0 0 0 1010.9 1010.7 13.2
 
Date/Time
CST
Temp
°C
App
Temp
°C
Dew
Point
°C
Rel
Hum
%
Delta-T
°C
Wind Press
QNH
hPa
Press
MSL
hPa
Rain since
9am
mm
Dir  Spd
km/h
Gust
km/h
Spd
kts
Gust
kts
20/11:30pm 26.0 31.0 23.9 88 1.4 ESE 4 7 2 4 1010.9 1010.7 13.2
20/11:00pm 26.1 31.8 23.8 87 1.6 CALM 0 0 0 0 1010.8 1010.6 13.2
20/10:30pm 26.3 32.1 24.0 87 1.6 CALM 0 0 0 0 1010.5 1010.3 13.2
20/10:00pm 26.5 31.9 23.8 85 1.9 S 2 6 1 3 1010.4 1010.2 13.2
20/09:30pm 26.0 31.8 23.9 88 1.4 CALM 0 7 0 4 1010.3 1010.1 13.2
20/09:00pm 26.0 31.8 23.9 88 1.4 CALM 0 0 0 0 1010.0 1009.8 13.2
20/08:30pm 26.0 31.7 23.7 87 1.6 CALM 0 4 0 2 1009.7 1009.5 13.2
20/08:00pm 25.9 30.3 23.4 86 1.7 SE 6 7 3 4 1009.3 1009.1 13.2
20/07:30pm 26.1 30.6 23.0 83 2.1 NE 4 9 2 5 1008.9 1008.7 13.2
20/07:00pm 26.5 31.6 23.4 83 2.1 SSW 2 7 1 4 1008.4 1008.2 13.2
20/06:30pm 26.4 31.8 23.3 83 2.1 CALM 0 6 0 3 1007.9 1007.7 13.2
20/06:00pm 26.6 31.3 22.7 79 2.6 NNE 2 7 1 4 1007.6 1007.4 13.2
20/05:30pm 25.8 29.6 22.7 83 2.1 E 7 13 4 7 1007.2 1007.0 13.2
20/05:00pm 26.0 29.6 22.3 80 2.5 NNW 7 13 4 7 1006.7 1006.5 13.2
20/04:30pm 25.3 27.8 21.0 77 2.8 N 9 15 5 8 1007.3 1007.1 13.2
20/04:00pm 24.8 24.1 20.3 76 2.9 N 24 37 13 20 1006.7 1006.5 13.0
20/03:45pm 24.2 22.5 19.9 77 2.8 E 28 54 15 29 1007.8 1007.6 9.4
20/03:30pm 26.3 27.3 20.2 69 4.0 ESE 15 43 8 23 1006.9 1006.7 0.2
20/03:17pm 28.8 28.9 19.1 55 6.3 ENE 17 35 9 19 1006.4 1006.2 0.0
20/03:00pm 33.9 34.5 20.3 45 9.1 NNW 17 24 9 13 1006.0 1005.8 0.0
20/02:30pm 35.3 37.0 21.6 45 9.4 NNW 15 22 8 12 1006.5 1006.3 0.0
20/02:00pm 35.6 37.8 20.3 40 10.3 SW 9 11 5 6 1006.9 1006.7 0.0
20/01:30pm 34.9 37.7 20.8 43 9.5 WNW 7 13 4 7 1007.3 1007.1 0.0
20/01:00pm 34.3 37.7 21.7 47 8.6 NNE 6 11 3 6 1008.1 1007.9 0.0
20/12:30pm 33.7 37.0 21.5 49 8.3 SSE 6 9 3 5 1008.6 1008.4 0.0
20/12:00pm 33.2 36.5 21.4 50 8.0 SW 6 9 3 5 1008.9 1008.7 0.0
20/11:30am 32.5 36.2 22.3 55 7.0 SSW 6 7 3 4 1009.1 1008.9 0.0
20/11:00am 31.8 35.3 21.9 55 6.7 ESE 6 9 3 5 1009.5 1009.3 0.0
20/10:30am 30.7 35.2 22.3 61 5.7 S 2 7 1 4 1009.8 1009.6 0.0
20/10:00am 30.2 34.5 22.6 63 5.2 N 4 7 2 4 1009.9 1009.7 0.0
20/09:30am 28.5 32.6 23.2 73 3.6 NNW 7 9 4 5 1009.9 1009.7 0.0
20/09:00am 27.8 32.2 23.4 77 3.0 SSW 6 11 3 6 1010.0 1009.8 0.0
20/08:30am 26.4 30.9 23.7 85 1.9 SSW 6 9 3 5 1009.7 1009.5 0.0
20/08:00am 25.2 30.8 23.6 91 1.1 CALM 0 0 0 0 1009.5 1009.3 0.0
20/07:30am 24.0 28.9 22.4 91 1.1 CALM 0 0 0 0 1009.2 1009.0 0.0
20/07:00am 23.5 28.1 21.8 90 1.1 CALM 0 0 0 0 1009.0 1008.8 0.0
20/06:30am 23.7 28.4 22.0 90 1.1 CALM 0 0 0 0 1008.6 1008.4 0.0
20/06:00am 23.9 28.7 22.2 90 1.1 CALM 0 0 0 0 1008.2 1008.0 0.0
20/05:30am 23.9 28.7 22.2 90 1.1 CALM 0 0 0 0 1008.0 1007.8 0.0
20/05:00am 24.0 28.9 22.3 90 1.1 CALM 0 0 0 0 1007.7 1007.5 0.0
20/04:30am 24.0 28.9 22.3 90 1.1 CALM 0 0 0 0 1007.7 1007.5 0.0
20/04:00am 24.3 29.4 22.6 90 1.1 CALM 0 0 0 0 1007.7 1007.5 0.0
20/03:30am 24.3 29.4 22.6 90 1.1 CALM 0 0 0 0 1007.8 1007.6 0.0
20/03:00am 24.1 29.0 22.4 90 1.1 CALM 0 0 0 0 1008.0 1007.8 0.0
20/02:30am 24.5 29.7 22.8 90 1.1 CALM 0 0 0 0 1008.4 1008.2 0.0
20/02:00am 24.4 29.4 22.5 89 1.3 CALM 0 0 0 0 1008.4 1008.2 0.0
20/01:30am 24.7 29.9 22.8 89 1.3 CALM 0 0 0 0 1008.7 1008.5 0.0
20/01:00am 24.9 30.2 23.0 89 1.3 CALM 0 0 0 0 1008.9 1008.7 0.0
20/12:30am 25.0 29.2 23.1 89 1.3 S 6 7 3 4 1009.2 1009.0 0.0
20/12:00am 25.1 30.5 23.2 89 1.3 CALM 0 0 0 0 1009.6 1009.4 0.0
 
Date/Time
CST
Temp
°C
App
Temp
°C
Dew
Point
°C
Rel
Hum
%
Delta-T
°C
Wind Press
QNH
hPa
Press
MSL
hPa
Rain since
9am
mm
Dir  Spd
km/h
Gust
km/h
Spd
kts
Gust
kts
19/11:30pm 25.2 30.3 23.3 89 1.3 SSE 2 7 1 4 1009.8 1009.6 0.0
19/11:00pm 25.8 31.5 23.7 88 1.4 CALM 0 0 0 0 1009.8 1009.6 0.0
19/10:30pm 25.8 31.4 23.5 87 1.6 CALM 0 0 0 0 1009.7 1009.5 0.0
19/10:00pm 25.8 31.1 23.7 88 1.4 SSW 2 7 1 4 1009.4 1009.2 0.0
19/09:30pm 25.8 31.2 23.3 86 1.7 CALM 0 0 0 0 1008.9 1008.7 0.0
19/09:00pm 26.0 31.4 23.3 85 1.8 CALM 0 0 0 0 1008.5 1008.3 0.0
19/08:30pm 26.4 31.8 23.3 83 2.1 CALM 0 0 0 0 1008.2 1008.0 0.0
19/08:00pm 26.6 31.9 23.1 81 2.4 CALM 0 0 0 0 1008.1 1007.9 0.0
19/07:30pm 27.6 31.8 23.2 77 3.0 NNW 6 9 3 5 1007.6 1007.4 0.0
19/07:00pm 28.3 32.5 23.4 75 3.4 NW 7 9 4 5 1007.5 1007.3 0.0
19/06:30pm 28.6 32.7 23.3 73 3.6 NW 7 13 4 7 1007.4 1007.2 0.0
19/06:00pm 29.0 33.0 22.7 69 4.3 W 6 11 3 6 1007.4 1007.2 0.0
19/05:30pm 29.3 32.9 23.0 69 4.3 WNW 9 13 5 7 1007.2 1007.0 0.0
19/05:00pm 29.6 33.6 23.8 71 4.0 WNW 9 13 5 7 1006.9 1006.7 0.0
19/04:30pm 30.0 35.1 23.4 67 4.6 N 2 9 1 5 1007.3 1007.1 0.0
19/04:00pm 29.8 34.3 23.7 70 4.2 SSE 6 7 3 4 1007.5 1007.3 0.0
19/03:30pm 29.4 34.5 23.4 70 4.1 S 2 7 1 4 1007.8 1007.6 0.0
19/03:00pm 28.2 30.6 22.2 70 4.1 S 13 20 7 11 1008.3 1008.1 0.0
19/02:30pm 29.0 32.8 23.4 72 3.9 SSW 9 11 5 6 1008.1 1007.9 0.0
19/02:00pm 28.6 32.6 23.1 72 3.8 WSW 7 11 4 6 1008.3 1008.1 0.0
19/01:30pm 27.9 31.7 22.8 74 3.5 S 7 15 4 8 1009.0 1008.8 0.0
19/01:00pm 27.9 31.1 23.1 75 3.3 SSE 11 17 6 9 1009.7 1009.5 0.0
19/12:30pm 28.4 31.8 23.3 74 3.5 S 11 19 6 10 1009.7 1009.5 0.0
19/12:00pm 29.6 32.8 23.1 68 4.5 SSE 11 17 6 9 1009.9 1009.7 0.0
19/11:30am 29.4 33.0 23.1 69 4.3 SSE 9 13 5 7 1010.7 1010.5 0.0
19/11:00am 30.3 32.7 23.0 65 5.0 SSE 15 28 8 15 1011.4 1011.2 0.0
19/10:30am 30.3 33.8 23.5 67 4.7 S 11 19 6 10 1011.4 1011.2 0.0
19/10:00am 30.1 33.5 23.3 67 4.7 SW 11 17 6 9 1010.7 1010.5 0.0
19/09:30am 30.1 33.7 23.8 69 4.4 W 11 17 6 9 1009.8 1009.6 0.0
19/09:00am 29.1 34.5 23.8 73 3.7 SSW 2 7 1 4 1009.7 1009.5 0.0
19/08:30am 27.7 33.3 23.5 78 2.9 CALM 0 6 0 3 1009.9 1009.7 0.0
19/08:00am 26.7 32.5 24.0 85 1.9 CALM 0 6 0 3 1009.4 1009.2 0.0
19/07:30am 25.6 30.9 23.1 86 1.7 CALM 0 0 0 0 1009.0 1008.8 0.0
19/07:00am 25.8 30.9 22.7 83 2.1 CALM 0 0 0 0 1008.5 1008.3 0.0
19/06:30am 25.7 29.7 22.8 84 2.0 SSW 6 7 3 4 1008.2 1008.0 0.0
19/06:00am 25.4 29.6 22.5 84 2.0 W 4 9 2 5 1007.9 1007.7 0.0
19/05:30am 25.0 30.0 22.5 86 1.7 CALM 0 0 0 0 1008.0 1007.8 0.0
19/05:00am 24.7 28.4 22.2 86 1.7 SE 6 7 3 4 1008.2 1008.0 0.0
19/04:30am 24.9 29.1 21.8 83 2.1 S 2 6 1 3 1007.7 1007.5 0.0
19/04:00am 25.5 28.9 21.6 79 2.6 NW 6 9 3 5 1007.4 1007.2 0.0
19/03:30am 25.9 29.2 21.8 78 2.7 WNW 7 11 4 6 1007.7 1007.5 0.0
19/03:00am 26.1 29.5 21.7 77 2.9 WNW 6 7 3 4 1008.0 1007.8 0.0
19/02:30am 26.1 29.5 22.0 78 2.7 WNW 7 9 4 5 1008.5 1008.3 0.0
19/02:00am 25.8 30.2 22.1 80 2.5 W 2 7 1 4 1009.1 1008.9 0.0
19/01:30am 25.6 30.4 22.1 81 2.3 CALM 0 0 0 0 1009.3 1009.1 0.0
19/01:00am 25.8 29.3 21.9 79 2.6 SSE 6 11 3 6 1010.0 1009.8 0.0
19/12:30am 26.0 29.2 21.7 77 2.9 S 7 11 4 6 1010.2 1010.0 0.0
19/12:00am 25.8 30.7 22.3 81 2.4 CALM 0 0 0 0 1010.2 1010.0 0.0
 
Date/Time
CST
Temp
°C
App
Temp
°C
Dew
Point
°C
Rel
Hum
%
Delta-T
°C
Wind Press
QNH
hPa
Press
MSL
hPa
Rain since
9am
mm
Dir  Spd
km/h
Gust
km/h
Spd
kts
Gust
kts
18/11:30pm 26.0 31.0 22.5 81 2.4 CALM 0 0 0 0 1010.0 1009.8 0.0
18/11:00pm 26.0 29.9 21.9 78 2.7 NE 4 7 2 4 1009.6 1009.4 0.0
18/10:30pm 26.2 30.3 21.6 76 3.1 E 2 6 1 3 1009.6 1009.4 0.0
18/10:00pm 26.8 29.7 20.6 69 4.1 SW 6 9 3 5 1009.5 1009.3 0.0
18/09:30pm 27.0 29.7 20.6 68 4.2 SSW 7 9 4 5 1009.8 1009.6 0.0
18/09:00pm 27.6 29.7 20.2 64 4.9 SSW 9 15 5 8 1009.3 1009.1 0.0
18/08:30pm 28.8 31.4 20.0 59 5.8 W 6 11 3 6 1008.7 1008.5 0.0
18/08:00pm 29.7 33.6 22.9 67 4.7 WSW 7 13 4 7 1008.9 1008.7 0.0
18/07:30pm 29.9 32.9 22.6 65 5.0 NW 11 20 6 11 1008.5 1008.3 0.0
18/07:00pm 30.6 33.2 22.7 62 5.4 NW 13 24 7 13 1008.2 1008.0 0.0
18/06:30pm 31.6 33.8 22.6 59 6.2 WNW 15 24 8 13 1007.6 1007.4 0.0
18/06:00pm 32.6 35.2 23.3 58 6.4 NW 15 24 8 13 1007.3 1007.1 0.0
18/05:30pm 33.2 35.9 22.9 54 7.1 WNW 13 20 7 11 1007.1 1006.9 0.0
18/05:00pm 33.6 36.0 23.6 56 7.0 NW 17 24 9 13 1007.2 1007.0 0.0
18/04:30pm 34.2 37.9 22.6 50 8.0 WNW 7 19 4 10 1007.5 1007.3 0.0
18/04:00pm 35.7 39.3 22.3 46 9.2 WSW 7 11 4 6 1007.8 1007.6 0.0
18/03:30pm 34.0 37.5 22.1 50 8.2 SW 7 11 4 6 1008.0 1007.8 0.0
18/03:00pm 33.9 36.9 22.0 49 8.1 NW 9 15 5 8 1008.3 1008.1 0.0
18/02:30pm 33.9 37.5 22.3 50 8.0 WSW 7 15 4 8 1008.5 1008.3 0.0
18/02:00pm 33.5 35.6 21.0 48 8.4 WNW 11 17 6 9 1008.9 1008.7 0.0
18/01:30pm 33.4 36.5 21.5 49 8.1 W 7 13 4 7 1009.5 1009.3 0.0
18/01:00pm 32.7 36.0 22.5 55 7.0 WNW 9 17 5 9 1010.2 1010.0 0.0
18/12:30pm 32.8 36.9 22.3 54 7.2 SW 4 9 2 5 1010.7 1010.5 0.0
18/12:00pm 31.5 34.6 21.4 55 6.8 SE 7 11 4 6 1011.4 1011.2 0.0
18/11:30am 31.8 34.8 21.9 55 6.7 SSE 9 15 5 8 1011.3 1011.1 0.0
18/11:00am 31.4 33.9 21.0 54 7.0 WSW 9 17 5 9 1011.4 1011.2 0.0
18/10:30am 30.7 33.6 21.8 59 6.0 SW 9 15 5 8 1011.2 1011.0 0.0
18/10:00am 30.2 32.5 20.7 56 6.3 SW 9 15 5 8 1011.4 1011.2 0.0
18/09:30am 29.3 32.6 21.8 64 5.1 WSW 7 13 4 7 1011.4 1011.2 0.0

Other Formats:

Comma delimited format used in spreadsheet applications
http://www.bom.gov.au/fwo/IDD60801/IDD60801.94100.axf

JavaScript Object Notation format (JSON) in row-major order
http://www.bom.gov.au/fwo/IDD60801/IDD60801.94100.json